createdAt,value
2023-04-22T00:00:17.306Z,951.5062
2023-04-22T00:01:18.409Z,951.5062
2023-04-22T00:02:19.624Z,951.4469
2023-04-22T00:03:20.720Z,951.3954
2023-04-22T00:04:22.101Z,951.3954
2023-04-22T00:05:22.986Z,951.4246
2023-04-22T00:06:23.882Z,951.4438
2023-04-22T00:07:24.962Z,951.4408
2023-04-22T00:08:26.049Z,951.3984
2023-04-22T00:09:27.137Z,951.3231
2023-04-22T00:10:28.252Z,951.3285
2023-04-22T00:11:29.329Z,951.3708
2023-04-22T00:12:30.424Z,951.4116
2023-04-22T00:13:31.531Z,951.4238
2023-04-22T00:14:32.624Z,951.4100
2023-04-22T00:15:33.729Z,951.3508
2023-04-22T00:16:34.884Z,951.3185
2023-04-22T00:17:35.986Z,951.3446
2023-04-22T00:18:38.083Z,951.3831
2023-04-22T00:19:38.312Z,951.4146
2023-04-22T00:20:39.194Z,951.4269
2023-04-22T00:21:40.310Z,951.3831
2023-04-22T00:22:41.394Z,951.3208
2023-04-22T00:23:42.459Z,951.3130
2023-04-22T00:24:43.579Z,951.3469
2023-04-22T00:25:44.666Z,951.3700
2023-04-22T00:26:45.743Z,951.3854
2023-04-22T00:27:46.856Z,951.3777
2023-04-22T00:28:47.932Z,951.3292
2023-04-22T00:29:49.040Z,951.3130
2023-04-22T00:30:50.626Z,951.3162
2023-04-22T00:31:51.256Z,951.3038
2023-04-22T00:32:52.399Z,951.2946
2023-04-22T00:33:53.380Z,951.2746
2023-04-22T00:34:54.492Z,951.2084
2023-04-22T00:35:55.579Z,951.1800
2023-04-22T00:36:56.695Z,951.1862
2023-04-22T00:37:57.758Z,951.2108
2023-04-22T00:38:58.886Z,951.2462
2023-04-22T00:39:59.968Z,951.2577
2023-04-22T00:41:01.038Z,951.2246
2023-04-22T00:42:02.155Z,951.1777
2023-04-22T00:43:03.228Z,951.1800
2023-04-22T00:44:04.340Z,951.2131
2023-04-22T00:45:05.451Z,951.2231
2023-04-22T00:46:06.537Z,951.2223
2023-04-22T00:47:07.678Z,951.1915
2023-04-22T00:48:08.774Z,951.1415
2023-04-22T00:49:09.808Z,951.1584
2023-04-22T00:50:10.921Z,951.2139
2023-04-22T00:51:12.003Z,951.2677
2023-04-22T00:52:13.101Z,951.3038
2023-04-22T00:53:14.181Z,951.3154
2023-04-22T00:54:15.278Z,951.2923
2023-04-22T00:55:16.420Z,951.2900
2023-04-22T00:56:17.502Z,951.3100
2023-04-22T00:57:18.557Z,951.3385
2023-04-22T00:58:19.670Z,951.3531
2023-04-22T00:59:20.736Z,951.3715
2023-04-22T01:00:21.844Z,951.3323
2023-04-22T01:01:22.960Z,951.2923
2023-04-22T01:02:24.100Z,951.3100
2023-04-22T01:03:25.238Z,951.3531
2023-04-22T01:04:26.259Z,951.4000
2023-04-22T01:05:27.292Z,951.4308
2023-04-22T01:06:28.404Z,951.4292
2023-04-22T01:07:29.486Z,951.3730
2023-04-22T01:08:30.588Z,951.3615
2023-04-22T01:09:31.667Z,951.3931
2023-04-22T01:10:32.749Z,951.4230
2023-04-22T01:11:33.852Z,951.4177
2023-04-22T01:12:34.929Z,951.3931
2023-04-22T01:13:36.036Z,951.3077
2023-04-22T01:14:37.137Z,951.2639
2023-04-22T01:15:38.199Z,951.2631
2023-04-22T01:16:39.344Z,951.2854
2023-04-22T01:17:40.413Z,951.2977
2023-04-22T01:18:41.549Z,951.3085
2023-04-22T01:19:43.200Z,951.2708
2023-04-22T01:20:43.747Z,951.2208
2023-04-22T01:21:44.801Z,951.2131
2023-04-22T01:22:45.887Z,951.2238
2023-04-22T01:23:47.003Z,951.2585
2023-04-22T01:24:48.060Z,951.2816
2023-04-22T01:25:49.171Z,951.2639
2023-04-22T01:26:50.276Z,951.2031
2023-04-22T01:27:51.350Z,951.1846
2023-04-22T01:28:52.433Z,951.1970
2023-04-22T01:29:53.535Z,951.2146
2023-04-22T01:30:54.620Z,951.2223
2023-04-22T01:31:55.757Z,951.2269
2023-04-22T01:32:56.820Z,951.1869
2023-04-22T01:33:57.888Z,951.1638
2023-04-22T01:34:58.965Z,951.1870
2023-04-22T01:36:00.108Z,951.2069
2023-04-22T01:37:01.165Z,951.2223
2023-04-22T01:38:02.250Z,951.2223
2023-04-22T01:39:03.352Z,951.2000
2023-04-22T01:40:04.423Z,951.1369
2023-04-22T01:41:05.498Z,951.1385
2023-04-22T01:42:06.611Z,951.1800
2023-04-22T01:43:07.691Z,951.2161
2023-04-22T01:44:08.794Z,951.2161
2023-04-22T01:45:09.859Z,951.2062
2023-04-22T01:46:11.009Z,951.1754
2023-04-22T01:47:12.049Z,951.1677
2023-04-22T01:48:13.167Z,951.1923
2023-04-22T01:49:14.217Z,951.2100
2023-04-22T01:50:15.318Z,951.2238
2023-04-22T01:51:16.432Z,951.2323
2023-04-22T01:52:17.499Z,951.2092
2023-04-22T01:53:18.585Z,951.1661
2023-04-22T01:54:19.688Z,951.1854
2023-04-22T01:55:20.821Z,951.2338
2023-04-22T01:56:21.871Z,951.2746
2023-04-22T01:57:22.976Z,951.2953
2023-04-22T01:58:24.054Z,951.3008
2023-04-22T01:59:25.126Z,951.2639
2023-04-22T02:00:26.235Z,951.2492
2023-04-22T02:01:27.326Z,951.2808
2023-04-22T02:02:28.469Z,951.3092
2023-04-22T02:03:29.665Z,951.3277
2023-04-22T02:04:30.632Z,951.3277
2023-04-22T02:05:31.676Z,951.3000
2023-04-22T02:06:32.772Z,951.2685
2023-04-22T02:07:34.170Z,951.2931
2023-04-22T02:08:34.948Z,951.3162
2023-04-22T02:09:36.077Z,951.3262
2023-04-22T02:10:37.123Z,951.3400
2023-04-22T02:11:38.213Z,951.3215
2023-04-22T02:12:39.291Z,951.2715
2023-04-22T02:13:40.382Z,951.2754
2023-04-22T02:14:41.473Z,951.3123
2023-04-22T02:15:42.611Z,951.3669
2023-04-22T02:16:43.638Z,951.3877
2023-04-22T02:17:44.726Z,951.3985
2023-04-22T02:18:45.833Z,951.3546
2023-04-22T02:19:46.945Z,951.3308
2023-04-22T02:20:48.027Z,951.3362
2023-04-22T02:21:49.121Z,951.3546
2023-04-22T02:22:50.179Z,951.3515
2023-04-22T02:23:51.281Z,951.3630
2023-04-22T02:24:52.360Z,951.3538
2023-04-22T02:25:53.454Z,951.3246
2023-04-22T02:26:54.516Z,951.3561
2023-04-22T02:27:55.705Z,951.3915
2023-04-22T02:28:56.694Z,951.4108
2023-04-22T02:29:57.798Z,951.4108
2023-04-22T02:30:58.883Z,951.3969
2023-04-22T02:32:00.028Z,951.3516
2023-04-22T02:33:01.161Z,951.3508
2023-04-22T02:34:02.157Z,951.3746
2023-04-22T02:35:03.240Z,951.3985
2023-04-22T02:36:04.316Z,951.3992
2023-04-22T02:37:05.397Z,951.3654
2023-04-22T02:38:06.498Z,951.3069
2023-04-22T02:39:07.598Z,951.2662
2023-04-22T02:40:08.662Z,951.3000
2023-04-22T02:41:09.760Z,951.3454
2023-04-22T02:42:10.828Z,951.3839
2023-04-22T02:43:11.926Z,951.4115
2023-04-22T02:44:13.003Z,951.3877
2023-04-22T02:45:14.082Z,951.3431
2023-04-22T02:46:15.233Z,951.3377
2023-04-22T02:47:16.259Z,951.3669
2023-04-22T02:48:17.379Z,951.3954
2023-04-22T02:49:18.431Z,951.4238
2023-04-22T02:50:19.541Z,951.4377
2023-04-22T02:51:20.621Z,951.3831
2023-04-22T02:52:21.720Z,951.3484
2023-04-22T02:53:22.835Z,951.3623
2023-04-22T02:54:23.885Z,951.3992
2023-04-22T02:55:24.981Z,951.4485
2023-04-22T02:56:26.054Z,951.4761
2023-04-22T02:57:27.141Z,951.4385
2023-04-22T02:58:28.242Z,951.3839
2023-04-22T02:59:29.347Z,951.3746
2023-04-22T03:00:30.418Z,951.3939
2023-04-22T03:01:31.643Z,951.4577
2023-04-22T03:02:32.706Z,951.5316
2023-04-22T03:03:33.866Z,951.5577
2023-04-22T03:04:34.837Z,951.5239
2023-04-22T03:05:35.909Z,951.5008
2023-04-22T03:06:36.974Z,951.5070
2023-04-22T03:07:38.063Z,951.5331
2023-04-22T03:08:39.182Z,951.5431
2023-04-22T03:09:40.551Z,951.5585
2023-04-22T03:10:41.320Z,951.5177
2023-04-22T03:11:42.457Z,951.4577
2023-04-22T03:12:43.534Z,951.4492
2023-04-22T03:13:44.641Z,951.4562
2023-04-22T03:14:45.697Z,951.4738
2023-04-22T03:15:46.799Z,951.4792
2023-04-22T03:16:47.974Z,951.4716
2023-04-22T03:17:49.146Z,951.4223
2023-04-22T03:18:50.065Z,951.4200
2023-04-22T03:19:51.172Z,951.4323
2023-04-22T03:20:52.262Z,951.4508
2023-04-22T03:21:53.338Z,951.4554
2023-04-22T03:22:54.469Z,951.4547
2023-04-22T03:23:55.575Z,951.4146
2023-04-22T03:24:56.624Z,951.4161
2023-04-22T03:25:57.728Z,951.4654
2023-04-22T03:26:58.809Z,951.5070
2023-04-22T03:27:59.911Z,951.5231
2023-04-22T03:29:01.021Z,951.5108
2023-04-22T03:30:02.079Z,951.4900
2023-04-22T03:31:03.178Z,951.4684
2023-04-22T03:32:04.324Z,951.5070
2023-04-22T03:33:05.367Z,951.5385
2023-04-22T03:34:06.444Z,951.5300
2023-04-22T03:35:07.535Z,951.5046
2023-04-22T03:36:08.602Z,951.4977
2023-04-22T03:37:09.706Z,951.4900
2023-04-22T03:38:10.793Z,951.5139
2023-04-22T03:39:11.899Z,951.5654
2023-04-22T03:40:13.757Z,951.5962
2023-04-22T03:41:14.095Z,951.6200
2023-04-22T03:42:15.154Z,951.6539
2023-04-22T03:43:16.228Z,951.6500
2023-04-22T03:44:17.333Z,951.6300
2023-04-22T03:45:18.415Z,951.6485
2023-04-22T03:46:19.617Z,951.6230
2023-04-22T03:47:20.673Z,951.6285
2023-04-22T03:48:21.693Z,951.6523
2023-04-22T03:49:22.787Z,951.6469
2023-04-22T03:50:23.878Z,951.6154
2023-04-22T03:51:24.952Z,951.6146
2023-04-22T03:52:26.046Z,951.6377
2023-04-22T03:53:27.159Z,951.6723
2023-04-22T03:54:28.234Z,951.6985
2023-04-22T03:55:29.298Z,951.7223
2023-04-22T03:56:30.417Z,951.7138
2023-04-22T03:57:31.493Z,951.7200
2023-04-22T03:58:32.582Z,951.7570
2023-04-22T03:59:33.671Z,951.7408
2023-04-22T04:00:34.752Z,951.7346
2023-04-22T04:01:35.828Z,951.7492
2023-04-22T04:02:37.109Z,951.7438
2023-04-22T04:03:38.224Z,951.7039
2023-04-22T04:04:39.538Z,951.7300
2023-04-22T04:05:40.223Z,951.7208
2023-04-22T04:06:41.248Z,951.7454
2023-04-22T04:07:42.343Z,951.7562
2023-04-22T04:08:43.433Z,951.7585
2023-04-22T04:09:44.553Z,951.7208
2023-04-22T04:10:45.600Z,951.7300
2023-04-22T04:11:46.743Z,951.7385
2023-04-22T04:12:47.782Z,951.7308
2023-04-22T04:13:48.857Z,951.7492
2023-04-22T04:14:49.966Z,951.7570
2023-04-22T04:15:51.072Z,951.7469
2023-04-22T04:16:52.136Z,951.7208
2023-04-22T04:17:53.255Z,951.7308
2023-04-22T04:18:54.285Z,951.7338
2023-04-22T04:19:55.560Z,951.7369
2023-04-22T04:20:56.460Z,951.7523
2023-04-22T04:21:57.564Z,951.7515
2023-04-22T04:22:58.656Z,951.7238
2023-04-22T04:23:59.775Z,951.7546
2023-04-22T04:25:00.837Z,951.7438
2023-04-22T04:26:01.919Z,951.7515
2023-04-22T04:27:03.018Z,951.7708
2023-04-22T04:28:04.104Z,951.7769
2023-04-22T04:29:05.193Z,951.7308
2023-04-22T04:30:06.332Z,951.7000
2023-04-22T04:31:07.428Z,951.7008
2023-04-22T04:32:08.504Z,951.7092
2023-04-22T04:33:09.618Z,951.7154
2023-04-22T04:34:10.635Z,951.7139
2023-04-22T04:35:11.757Z,951.6877
2023-04-22T04:36:12.850Z,951.6423
2023-04-22T04:37:13.925Z,951.6723
2023-04-22T04:38:15.017Z,951.7000
2023-04-22T04:39:16.102Z,951.7538
2023-04-22T04:40:17.203Z,951.7792
2023-04-22T04:41:18.273Z,951.7623
2023-04-22T04:42:19.399Z,951.6992
2023-04-22T04:43:20.455Z,951.7031
2023-04-22T04:44:21.573Z,951.7146
2023-04-22T04:45:22.670Z,951.7400
2023-04-22T04:46:23.797Z,951.7631
2023-04-22T04:47:24.874Z,951.7438
2023-04-22T04:48:25.923Z,951.6892
2023-04-22T04:49:27.001Z,951.6908
2023-04-22T04:50:28.143Z,951.7808
2023-04-22T04:51:29.192Z,951.8077
2023-04-22T04:52:30.285Z,951.7977
2023-04-22T04:53:31.396Z,951.7592
2023-04-22T04:54:32.484Z,951.7346
2023-04-22T04:55:33.569Z,951.7462
2023-04-22T04:56:34.648Z,951.7885
2023-04-22T04:57:37.887Z,951.8177
2023-04-22T04:58:36.816Z,951.7754
2023-04-22T04:59:38.061Z,951.7570
2023-04-22T05:00:39.037Z,951.7769
2023-04-22T05:01:40.137Z,951.7885
2023-04-22T05:02:41.504Z,951.8115
2023-04-22T05:03:42.414Z,951.8138
2023-04-22T05:04:43.532Z,951.7662
2023-04-22T05:05:44.487Z,951.7554
2023-04-22T05:06:45.544Z,951.7692
2023-04-22T05:07:46.683Z,951.7700
2023-04-22T05:08:47.724Z,951.7477
2023-04-22T05:09:48.821Z,951.7623
2023-04-22T05:10:49.914Z,951.7585
2023-04-22T05:11:51.039Z,951.7515
2023-04-22T05:12:52.095Z,951.7985
2023-04-22T05:13:53.179Z,951.8347
2023-04-22T05:14:54.297Z,951.8431
2023-04-22T05:15:55.409Z,951.8823
2023-04-22T05:16:56.688Z,951.9246
2023-04-22T05:17:57.682Z,951.9692
2023-04-22T05:18:58.729Z,951.9639
2023-04-22T05:19:59.832Z,951.9869
2023-04-22T05:21:00.977Z,951.9869
2023-04-22T05:22:02.035Z,952.0115
2023-04-22T05:23:03.134Z,952.0223
2023-04-22T05:24:04.208Z,952.0477
2023-04-22T05:25:05.278Z,952.0615
2023-04-22T05:26:06.413Z,952.0362
2023-04-22T05:27:07.476Z,952.0208
2023-04-22T05:28:08.578Z,952.0231
2023-04-22T05:29:09.667Z,952.0247
2023-04-22T05:30:10.765Z,952.0331
2023-04-22T05:31:11.917Z,952.0331
2023-04-22T05:32:12.989Z,951.9938
2023-04-22T05:33:14.057Z,951.9908
2023-04-22T05:34:15.112Z,951.9869
2023-04-22T05:35:16.240Z,952.0070
2023-04-22T05:36:17.344Z,952.0385
2023-04-22T05:37:18.425Z,952.0731
2023-04-22T05:38:19.510Z,952.0762
2023-04-22T05:39:20.602Z,952.0453
2023-04-22T05:40:21.690Z,952.0385
2023-04-22T05:41:22.824Z,952.0284
2023-04-22T05:42:23.874Z,952.0354
2023-04-22T05:43:24.984Z,952.0438
2023-04-22T05:44:26.075Z,952.0477
2023-04-22T05:45:27.151Z,952.0008
2023-04-22T05:46:28.365Z,951.9823
2023-04-22T05:47:29.413Z,951.9523
2023-04-22T05:48:30.437Z,951.9639
2023-04-22T05:49:31.539Z,951.9923
2023-04-22T05:50:32.712Z,952.0316
2023-04-22T05:51:33.725Z,952.0446
2023-04-22T05:52:34.817Z,952.0723
2023-04-22T05:53:35.910Z,952.0984
2023-04-22T05:54:37.007Z,952.1208
2023-04-22T05:55:38.078Z,952.1331
2023-04-22T05:56:39.200Z,952.1623
2023-04-22T05:57:40.288Z,952.1877
2023-04-22T05:58:41.371Z,952.2023
2023-04-22T05:59:42.742Z,952.1692
2023-04-22T06:00:43.559Z,952.2031
2023-04-22T06:01:44.655Z,952.1985
2023-04-22T06:02:45.955Z,952.2177
2023-04-22T06:03:47.044Z,952.2277
2023-04-22T06:04:48.193Z,952.2315
2023-04-22T06:05:49.122Z,952.1846
2023-04-22T06:06:50.116Z,952.1931
2023-04-22T06:07:51.187Z,952.2008
2023-04-22T06:08:52.296Z,952.2169
2023-04-22T06:10:02.207Z,952.2477
2023-04-22T06:10:55.476Z,952.2800
2023-04-22T06:11:55.556Z,952.2531
2023-04-22T06:12:56.648Z,952.2492
2023-04-22T06:13:57.750Z,952.2438
2023-04-22T06:14:58.850Z,952.2100
2023-04-22T06:16:00.008Z,952.2092
2023-04-22T06:17:01.060Z,952.2062
2023-04-22T06:18:02.130Z,952.1830
2023-04-22T06:19:03.211Z,952.1523
2023-04-22T06:20:04.314Z,952.1646
2023-04-22T06:21:05.406Z,952.1746
2023-04-22T06:22:06.693Z,952.2008
2023-04-22T06:23:07.580Z,952.2392
2023-04-22T06:24:08.722Z,952.2592
2023-04-22T06:25:09.754Z,952.2408
2023-04-22T06:26:10.834Z,952.2538
2023-04-22T06:27:11.947Z,952.2700
2023-04-22T06:28:13.080Z,952.2823
2023-04-22T06:29:14.133Z,952.3200
2023-04-22T06:30:15.233Z,952.3546
2023-04-22T06:31:17.603Z,952.3585
2023-04-22T06:32:17.422Z,952.3339
2023-04-22T06:33:18.505Z,952.3661
2023-04-22T06:34:19.644Z,952.3408
2023-04-22T06:35:20.665Z,952.3615
2023-04-22T06:36:21.766Z,952.3738
2023-04-22T06:37:22.864Z,952.3823
2023-04-22T06:38:23.965Z,952.3962
2023-04-22T06:39:25.033Z,952.4039
2023-04-22T06:40:26.158Z,952.3823
2023-04-22T06:41:27.233Z,952.4046
2023-04-22T06:42:28.315Z,952.4462
2023-04-22T06:43:29.423Z,952.4684
2023-04-22T06:44:30.513Z,952.4761
2023-04-22T06:45:31.602Z,952.4684
2023-04-22T06:46:32.708Z,952.4692
2023-04-22T06:47:33.809Z,952.4569
2023-04-22T06:48:34.870Z,952.4623
2023-04-22T06:49:35.954Z,952.4615
2023-04-22T06:50:37.049Z,952.4684
2023-04-22T06:51:38.156Z,952.4815
2023-04-22T06:52:39.299Z,952.4631
2023-04-22T06:53:40.323Z,952.4308
2023-04-22T06:54:41.417Z,952.4415
2023-04-22T06:55:42.513Z,952.4554
2023-04-22T06:56:43.602Z,952.4877
2023-04-22T06:57:44.724Z,952.5023
2023-04-22T06:58:45.796Z,952.4985
2023-04-22T06:59:47.284Z,952.4739
2023-04-22T07:00:47.981Z,952.4577
2023-04-22T07:01:49.106Z,952.4661
2023-04-22T07:02:50.264Z,952.4777
2023-04-22T07:03:51.314Z,952.4900
2023-04-22T07:04:52.371Z,952.5023
2023-04-22T07:05:53.461Z,952.4969
2023-04-22T07:06:54.521Z,952.4438
2023-04-22T07:07:55.594Z,952.4462
2023-04-22T07:08:56.701Z,952.4562
2023-04-22T07:09:57.777Z,952.4808
2023-04-22T07:10:58.889Z,952.5085
2023-04-22T07:12:00.131Z,952.5247
2023-04-22T07:13:01.067Z,952.5231
2023-04-22T07:14:02.155Z,952.5177
2023-04-22T07:15:03.265Z,952.5300
2023-04-22T07:16:04.381Z,952.5431
2023-04-22T07:17:05.457Z,952.5308
2023-04-22T07:18:06.567Z,952.5208
2023-04-22T07:19:07.643Z,952.4985
2023-04-22T07:20:08.754Z,952.4608
2023-04-22T07:21:09.812Z,952.4684
2023-04-22T07:22:10.934Z,952.4823
2023-04-22T07:23:12.074Z,952.4908
2023-04-22T07:24:13.120Z,952.5023
2023-04-22T07:25:14.202Z,952.5062
2023-04-22T07:26:15.289Z,952.5008
2023-04-22T07:27:16.390Z,952.5100
2023-04-22T07:28:17.475Z,952.5385
2023-04-22T07:29:18.601Z,952.5685
2023-04-22T07:30:19.654Z,952.5723
2023-04-22T07:31:20.814Z,952.5708
2023-04-22T07:32:21.858Z,952.5723
2023-04-22T07:33:22.933Z,952.5515
2023-04-22T07:34:24.066Z,952.5731
2023-04-22T07:35:25.149Z,952.6138
2023-04-22T07:36:26.201Z,952.6254
2023-04-22T07:37:27.316Z,952.6254
2023-04-22T07:38:28.439Z,952.6008
2023-04-22T07:39:29.498Z,952.5469
2023-04-22T07:40:30.605Z,952.5270
2023-04-22T07:41:31.725Z,952.5185
2023-04-22T07:42:32.782Z,952.5146
2023-04-22T07:43:33.862Z,952.5123
2023-04-22T07:44:36.144Z,952.5100
2023-04-22T07:45:36.110Z,952.4954
2023-04-22T07:46:37.150Z,952.4753
2023-04-22T07:47:38.384Z,952.4930
2023-04-22T07:48:39.333Z,952.5185
2023-04-22T07:49:40.740Z,952.5131
2023-04-22T07:50:41.501Z,952.5339
2023-04-22T07:51:42.587Z,952.5339
2023-04-22T07:52:43.685Z,952.5215
2023-04-22T07:53:44.815Z,952.5354
2023-04-22T07:54:45.863Z,952.5469
2023-04-22T07:55:46.960Z,952.5739
2023-04-22T07:56:48.066Z,952.5815
2023-04-22T07:57:49.187Z,952.5762
2023-04-22T07:58:50.277Z,952.5508
2023-04-22T07:59:51.393Z,952.5592
2023-04-22T08:00:52.461Z,952.5877
2023-04-22T08:01:53.652Z,952.6123
2023-04-22T08:02:54.810Z,952.6431
2023-04-22T08:03:56.140Z,952.6769
2023-04-22T08:04:56.947Z,952.6592
2023-04-22T08:05:57.940Z,952.6292
2023-04-22T08:06:59.063Z,952.6423
2023-04-22T08:08:00.151Z,952.6646
2023-04-22T08:09:01.225Z,952.6777
2023-04-22T08:10:02.326Z,952.6877
2023-04-22T08:11:03.440Z,952.6631
2023-04-22T08:12:04.507Z,952.6016
2023-04-22T08:13:05.596Z,952.5739
2023-04-22T08:14:06.689Z,952.5530
2023-04-22T08:15:07.791Z,952.5392
2023-04-22T08:16:08.910Z,952.5331
2023-04-22T08:17:10.001Z,952.5254
2023-04-22T08:18:11.067Z,952.4977
2023-04-22T08:19:12.176Z,952.4854
2023-04-22T08:20:13.239Z,952.5046
2023-04-22T08:21:14.351Z,952.5185
2023-04-22T08:22:15.448Z,952.5346
2023-04-22T08:23:16.566Z,952.5277
2023-04-22T08:24:17.647Z,952.5131
2023-04-22T08:25:18.755Z,952.4738
2023-04-22T08:26:19.844Z,952.4808
2023-04-22T08:27:20.910Z,952.5038
2023-04-22T08:28:22.047Z,952.4969
2023-04-22T08:29:23.109Z,952.5038
2023-04-22T08:30:24.206Z,952.4954
2023-04-22T08:31:25.310Z,952.4584
2023-04-22T08:32:26.528Z,952.4392
2023-04-22T08:33:27.515Z,952.4677
2023-04-22T08:34:28.635Z,952.4954
2023-04-22T08:35:29.673Z,952.5115
2023-04-22T08:36:30.751Z,952.5077
2023-04-22T08:37:31.833Z,952.4930
2023-04-22T08:38:32.941Z,952.4631
2023-04-22T08:39:34.057Z,952.4830
2023-04-22T08:40:35.111Z,952.4977
2023-04-22T08:41:36.204Z,952.5162
2023-04-22T08:42:37.302Z,952.5323
2023-04-22T08:43:38.393Z,952.5354
2023-04-22T08:44:39.495Z,952.5123
2023-04-22T08:45:40.597Z,952.5100
2023-04-22T08:46:41.707Z,952.5323
2023-04-22T08:47:42.796Z,952.5369
2023-04-22T08:48:43.855Z,952.5515
2023-04-22T08:49:44.962Z,952.5446
2023-04-22T08:50:46.079Z,952.5361
2023-04-22T08:51:47.137Z,952.5046
2023-04-22T08:52:48.218Z,952.5023
2023-04-22T08:53:49.314Z,952.5008
2023-04-22T08:54:58.299Z,952.5085
2023-04-22T08:55:51.505Z,952.4825
2023-04-22T08:56:52.616Z,952.4415
2023-04-22T08:57:53.689Z,952.3877
2023-04-22T08:58:54.772Z,952.3515
2023-04-22T08:59:55.983Z,952.3469
2023-04-22T09:00:56.973Z,952.3546
2023-04-22T09:01:58.154Z,952.3277
2023-04-22T09:02:59.222Z,952.2662
2023-04-22T09:04:00.520Z,952.2677
2023-04-22T09:05:01.355Z,952.2377
2023-04-22T09:06:02.459Z,952.2369
2023-04-22T09:07:03.533Z,952.2315
2023-04-22T09:08:04.615Z,952.1923
2023-04-22T09:09:05.719Z,952.1923
2023-04-22T09:10:06.815Z,952.2054
2023-04-22T09:11:07.924Z,952.1938
2023-04-22T09:12:09.005Z,952.1931
2023-04-22T09:13:10.085Z,952.2031
2023-04-22T09:14:11.190Z,952.2047
2023-04-22T09:15:12.265Z,952.1908
2023-04-22T09:16:13.400Z,952.1308
2023-04-22T09:17:14.479Z,952.1300
2023-04-22T09:18:15.568Z,952.1308
2023-04-22T09:19:16.641Z,952.1300
2023-04-22T09:20:17.834Z,952.1193
2023-04-22T09:21:18.902Z,952.0577
2023-04-22T09:22:20.002Z,952.0485
2023-04-22T09:23:21.100Z,952.0108
2023-04-22T09:24:22.201Z,951.9985
2023-04-22T09:25:23.275Z,952.0062
2023-04-22T09:26:24.432Z,952.0200
2023-04-22T09:27:25.484Z,952.0277
2023-04-22T09:28:26.567Z,951.9915
2023-04-22T09:29:27.661Z,951.9815
2023-04-22T09:30:28.772Z,951.9830
2023-04-22T09:31:29.853Z,951.9777
2023-04-22T09:32:31.015Z,951.9723
2023-04-22T09:33:32.060Z,951.9631
2023-04-22T09:34:33.171Z,951.9315
2023-04-22T09:35:34.227Z,951.9377
2023-04-22T09:36:35.340Z,951.9261
2023-04-22T09:37:46.577Z,951.9308
2023-04-22T09:38:38.514Z,951.9300
2023-04-22T09:39:38.892Z,951.9061
2023-04-22T09:40:39.719Z,951.8661
2023-04-22T09:41:40.813Z,951.8792
2023-04-22T09:42:41.914Z,951.8931
2023-04-22T09:43:42.985Z,951.9123
2023-04-22T09:44:44.087Z,951.9431
2023-04-22T09:45:45.205Z,951.9761
2023-04-22T09:46:46.262Z,951.9823
2023-04-22T09:47:47.415Z,951.9639
2023-04-22T09:48:48.435Z,951.9738
2023-04-22T09:49:49.546Z,951.9646
2023-04-22T09:50:50.644Z,951.9861
2023-04-22T09:51:51.715Z,952.0246
2023-04-22T09:52:52.802Z,952.0562
2023-04-22T09:53:53.939Z,952.0392
2023-04-22T09:54:55.012Z,952.0054
2023-04-22T09:55:56.093Z,951.9562
2023-04-22T09:56:57.182Z,951.9123
2023-04-22T09:57:58.271Z,951.8846
2023-04-22T09:58:59.363Z,951.8715
2023-04-22T10:00:00.503Z,951.8385
2023-04-22T10:01:01.586Z,951.8346
2023-04-22T10:02:02.683Z,951.8130
2023-04-22T10:03:03.824Z,951.7631
2023-04-22T10:04:04.874Z,951.7700
2023-04-22T10:05:05.914Z,951.7892
2023-04-22T10:06:07.045Z,951.8077
2023-04-22T10:07:08.125Z,951.8185
2023-04-22T10:08:09.275Z,951.8593
2023-04-22T10:09:10.311Z,951.8770
2023-04-22T10:10:11.387Z,951.8923
2023-04-22T10:11:12.477Z,951.9431
2023-04-22T10:12:14.114Z,951.9462
2023-04-22T10:13:14.674Z,951.9623
2023-04-22T10:14:15.766Z,951.9600
2023-04-22T10:15:16.849Z,951.9408
2023-04-22T10:16:17.965Z,951.8900
2023-04-22T10:17:19.039Z,951.8815
2023-04-22T10:18:20.179Z,951.8969
2023-04-22T10:19:21.258Z,951.8800
2023-04-22T10:20:22.339Z,951.8546
2023-04-22T10:21:25.228Z,951.8585
2023-04-22T10:22:24.505Z,951.8192
2023-04-22T10:23:25.628Z,951.8208
2023-04-22T10:24:26.703Z,951.8347
2023-04-22T10:25:27.795Z,951.8439
2023-04-22T10:26:28.882Z,951.8331
2023-04-22T10:27:29.982Z,951.8477
2023-04-22T10:28:31.048Z,951.8315
2023-04-22T10:29:32.161Z,951.8054
2023-04-22T10:30:33.241Z,951.8162
2023-04-22T10:31:34.402Z,951.7608
2023-04-22T10:32:35.464Z,951.7685
2023-04-22T10:33:36.546Z,951.7854
2023-04-22T10:34:37.630Z,951.7854
2023-04-22T10:35:38.736Z,951.7369
2023-04-22T10:36:39.805Z,951.7285
2023-04-22T10:37:40.914Z,951.7100
2023-04-22T10:38:42.054Z,951.6469
2023-04-22T10:39:43.479Z,951.6385
2023-04-22T10:40:44.192Z,951.6215
2023-04-22T10:41:45.347Z,951.6230
2023-04-22T10:42:46.377Z,951.5869
2023-04-22T10:43:47.529Z,951.6092
2023-04-22T10:44:48.596Z,951.6339
2023-04-22T10:45:49.736Z,951.6777
2023-04-22T10:46:50.768Z,951.6870
2023-04-22T10:47:51.951Z,951.7154
2023-04-22T10:48:52.977Z,951.7115
2023-04-22T10:49:54.052Z,951.7454
2023-04-22T10:50:55.137Z,951.7831
2023-04-22T10:51:56.234Z,951.7577
2023-04-22T10:52:57.322Z,951.7400
2023-04-22T10:53:58.434Z,951.7131
2023-04-22T10:54:59.527Z,951.6669
2023-04-22T10:56:00.605Z,951.6331
2023-04-22T10:57:01.695Z,951.6331
2023-04-22T10:58:02.773Z,951.6700
2023-04-22T10:59:03.876Z,951.7084
2023-04-22T11:00:04.991Z,951.7246
2023-04-22T11:01:06.073Z,951.7361
2023-04-22T11:02:07.182Z,951.7454
2023-04-22T11:03:08.442Z,951.7861
2023-04-22T11:04:09.682Z,951.8223
2023-04-22T11:05:10.424Z,951.8015
2023-04-22T11:06:11.530Z,951.8138
2023-04-22T11:07:12.603Z,951.8461
2023-04-22T11:08:13.708Z,951.8461
2023-04-22T11:09:14.802Z,951.8492
2023-04-22T11:10:15.960Z,951.8646
2023-04-22T11:11:17.006Z,951.8292
2023-04-22T11:12:18.058Z,951.8746
2023-04-22T11:13:19.197Z,951.8947
2023-04-22T11:14:20.318Z,951.8869
2023-04-22T11:15:21.422Z,951.8484
2023-04-22T11:16:22.798Z,951.8692
2023-04-22T11:17:23.645Z,951.8677
2023-04-22T11:18:24.707Z,951.8754
2023-04-22T11:19:25.787Z,951.8685
2023-04-22T11:20:26.891Z,951.8661
2023-04-22T11:21:27.993Z,951.8523
2023-04-22T11:22:29.085Z,951.8785
2023-04-22T11:23:30.168Z,951.8815
2023-04-22T11:24:31.267Z,951.8823
2023-04-22T11:25:32.334Z,951.8854
2023-04-22T11:26:33.446Z,951.9031
2023-04-22T11:27:34.517Z,951.8977
2023-04-22T11:28:35.648Z,951.8862
2023-04-22T11:29:36.731Z,951.8908
2023-04-22T11:30:37.817Z,951.8962
2023-04-22T11:31:38.909Z,951.8939
2023-04-22T11:32:40.036Z,951.9116
2023-04-22T11:33:41.080Z,951.9408
2023-04-22T11:34:42.217Z,951.9208
2023-04-22T11:35:43.285Z,951.9261
2023-04-22T11:36:44.371Z,951.9438
2023-04-22T11:37:45.476Z,951.9569
2023-04-22T11:38:46.558Z,951.9438
2023-04-22T11:40:10.257Z,951.9423
2023-04-22T11:40:49.838Z,951.9138
2023-04-22T11:41:49.837Z,951.9039
2023-04-22T11:42:50.922Z,951.9208
2023-04-22T11:43:52.032Z,951.9154
2023-04-22T11:44:53.099Z,951.8947
2023-04-22T11:45:54.230Z,951.8862
2023-04-22T11:46:55.341Z,951.8638
2023-04-22T11:47:56.446Z,951.8154
2023-04-22T11:48:57.475Z,951.8569
2023-04-22T11:49:58.599Z,951.8723
2023-04-22T11:50:59.660Z,951.8754
2023-04-22T11:52:00.768Z,951.8854
2023-04-22T11:53:01.887Z,951.8931
2023-04-22T11:54:02.959Z,951.8508
2023-04-22T11:55:04.044Z,951.8669
2023-04-22T11:56:05.129Z,951.8669
2023-04-22T11:57:06.263Z,951.9154